WEATHER DATA

YESTERDAY
Time Temp. Dewp. Hum. Wind dir Wind speed Wind gust Bar. 1h Prec. 24h Prec.
00:05 3.5 2.2 91 115 0.8 1.7 1033.1 0.0000 0.0000
00:16 3.5 2.2 91 104 0.8 1.7 1032.9 0.0000 0.0000
00:26 3.4 2.1 91 124 0.8 2.5 1032.9 0.0000 0.0000
00:35 3.4 2.1 91 135 0.3 1.4 1032.9 0.0000 0.0000
00:45 3.3 2 91 90 0.8 1.7 1033 0.0000 0.0000
00:56 3.2 1.9 91 90 0.8 1.7 1033.1 0.0000 0.0000
01:06 3.2 1.9 91 125 0.8 2.2 1033 0.0000 0.0000
01:16 3.1 1.8 91 106 0.8 2.2 1032.8 0.0000 0.0000
01:26 3.1 1.8 91 102 0.8 1.4 1032.9 0.0000 0.0000
01:36 3.1 1.8 91 90 0.8 1.7 1033 0.0000 0.0000
01:46 3 1.7 91 90 0.8 2.2 1032.8 0.0000 0.0000
01:57 2.9 1.6 91 102 0.8 2.5 1032.7 0.0000 0.0000
02:07 2.9 1.6 91 90 0.8 2.5 1032.7 0.0000 0.0000
02:17 2.9 1.6 91 90 1.1 2.8 1032.7 0.0000 0.0000
02:27 2.9 1.7 92 108 0.8 2.2 1032.6 0.0000 0.0000
02:37 2.8 1.6 92 90 0.8 2.2 1032.6 0.0000 0.0000
02:48 2.8 1.6 92 102 0.8 2.2 1032.4 0.0000 0.0000
02:57 2.9 1.7 92 111 0.8 1.7 1032.5 0.0000 0.0000
03:07 2.9 1.7 92 117 0.8 1.7 1032.4 0.0000 0.0000
03:18 2.8 1.5 91 90 0.8 2.2 1032.5 0.0000 0.0000
03:28 2.7 1.4 91 90 0.3 1.1 1032.4 0.0000 0.0000
03:38 2.7 1.5 92 90 0.8 1.7 1032.3 0.0000 0.0000
03:47 2.7 1.5 92 122 0.3 1.4 1032.4 0.0000 0.0000
03:58 2.6 1.4 92 113 0.8 1.4 1032.3 0.0000 0.0000
04:08 2.5 1.2 91 90 0.8 1.7 1032.4 0.0000 0.0000
04:18 2.5 1.2 91 102 0.8 2.5 1032.5 0.0000 0.0000
04:28 2.4 1.2 92 146 0.3 1.4 1032.3 0.0000 0.0000
04:38 2.3 1.1 92 130 0.8 1.4 1032.6 0.0000 0.0000
04:48 2.2 0.9 91 90 0.8 2.5 1032.4 0.0000 0.0000
04:58 2.2 1 92 110 0.8 2.2 1032.3 0.0000 0.0000
05:09 2.1 0.9 92 90 0.8 2.2 1032.2 0.0000 0.0000
05:19 2.1 0.9 92 135 0.3 1.1 1032.3 0.0000 0.0000
05:28 2.2 1 92 111 0.8 1.7 1032.3 0.0000 0.0000
05:38 2.1 0.9 92 106 0.8 1.4 1032.1 0.0000 0.0000
05:49 2.1 0.9 92 106 0.8 1.4 1032.3 0.0000 0.0000
05:59 2 0.8 92 103 0.8 1.7 1032.2 0.0000 0.0000
06:09 1.9 0.7 92 90 1.1 1.7 1032.3 0.0000 0.0000
06:19 1.9 0.7 92 90 0.8 1.7 1032.2 0.0000 0.0000
06:29 1.9 0.7 92 77 0.8 2.5 1032.1 0.0000 0.0000
06:39 1.8 0.6 92 90 0.8 2.5 1032 0.0000 0.0000
06:49 1.8 0.6 92 90 0.8 2.5 1032 0.0000 0.0000
07:00 1.8 0.6 92 117 0.8 1.7 1032.2 0.0000 0.0000
07:09 1.8 0.6 92 111 0.8 1.7 1032.2 0.0000 0.0000
07:19 1.7 0.5 92 90 0.8 1.7 1032.1 0.0000 0.0000
07:30 1.7 0.5 92 105 0.8 1.7 1032.2 0.0000 0.0000
07:40 1.6 0.4 92 90 0.8 2.2 1032.4 0.0000 0.0000
07:50 1.6 0.4 92 104 0.8 1.7 1032.5 0.0000 0.0000
08:00 1.6 0.4 92 90 0.8 2.2 1032.4 0.0000 0.0000
08:10 1.5 0.3 92 90 0.8 2.2 1032.4 0.0000 0.0000
08:20 1.6 0.4 92 90 0.8 1.4 1032.5 0.0000 0.0000
08:30 1.6 0.4 92 90 0.8 2.8 1032.5 0.0000 0.0000
08:40 1.6 0.4 92 90 0.8 3.3 1032.6 0.0000 0.0000
08:51 1.7 0.5 92 116 0.8 1.4 1032.6 0.0000 0.0000
09:00 1.8 0.6 92 90 0.8 2.2 1032.8 0.0000 0.0000
09:10 1.9 0.9 93 90 0.8 2.2 1032.9 0.0000 0.0000
09:21 2 1 93 79 0.8 2.2 1032.8 0.0000 0.0000
09:31 2.1 1.1 93 90 0.8 2.5 1032.9 0.0000 0.0000
09:41 2.3 1.3 93 100 0.8 1.7 1032.8 0.0000 0.0000
09:51 2.5 1.5 93 90 0.8 1.7 1032.9 0.0000 0.0000
10:01 2.8 1.8 93 90 0.8 2.5 1032.8 0.0000 0.0000
10:11 3.6 2.9 95 90 0.3 1.7 1032.8 0.0000 0.0000
10:21 4.3 3.6 95 126 0.3 2.5 1032.8 0.0000 0.0000
10:32 4.3 3.1 92 90 0.8 2.2 1032.8 0.0000 0.0000
10:41 4.8 3.8 93 90 0.3 1.7 1032.8 0.0000 0.0000
10:51 5.7 4.7 93 135 0.3 1.4 1032.8 0.0000 0.0000
11:01 6.2 5 92 90 0.3 1.7 1032.6 0.0000 0.0000
11:12 6.9 5.5 91 140 0.3 1.4 1032.5 0.0000 0.0000
11:22 7.4 5.9 90 135 0.8 2.5 1032.4 0.0000 0.0000
11:31 7.4 5.4 87 180 0.8 1.7 1032.4 0.0000 0.0000
11:42 7.8 5.3 84 210 0.8 1.4 1032.2 0.0000 0.0000
11:52 8 5.1 82 69 0.8 2.2 1032.3 0.0000 0.0000
12:02 8 4.8 80 55 0.8 2.2 1032.3 0.0000 0.0000
12:12 8.3 4.7 78 61 1.1 2.8 1032.2 0.0000 0.0000
12:32 8.7 5.1 78 90 0.8 2.8 1031.8 0.0000 0.0000
12:42 8.9 5.3 78 108 0.8 2.2 1031.5 0.0000 0.0000
13:03 9.3 5.5 77 90 0.3 2.2 1031.1 0.0000 0.0000
13:13 9.6 5.8 77 90 0.8 1.7 1031.1 0.0000 0.0000
13:33 10.1 6.1 76 90 0.8 2.8 1030.7 0.0000 0.0000
13:43 10.3 6.1 75 90 0.8 2.8 1030.7 0.0000 0.0000
13:53 10.5 6.3 75 135 0.8 2.2 1030.6 0.0000 0.0000
14:03 10.7 6.5 75 90 0.8 1.7 1030.5 0.0000 0.0000
14:13 10.9 6.3 73 75 0.8 2.5 1030.4 0.0000 0.0000
14:23 10.9 6.3 73 79 0.8 2.5 1030.4 0.0000 0.0000
14:33 11.2 6.5 73 77 0.8 2.5 1030.2 0.0000 0.0000
14:44 11.3 6.2 71 57 0.8 3.3 1030.1 0.0000 0.0000
14:54 11.5 6.2 70 90 0.8 2.8 1030.1 0.0000 0.0000
15:03 11.6 6.3 70 90 0.8 3.3 1030.1 0.0000 0.0000
15:13 11.8 6.3 69 90 0.8 3.3 1030.1 0.0000 0.0000
15:24 11.9 6.2 68 126 0.8 2.5 1030 0.0000 0.0000
15:34 12 6.3 68 102 0.8 3.3 1029.9 0.0000 0.0000
15:44 11.9 6 67 71 0.8 2.5 1029.7 0.0000 0.0000
15:54 11.9 6.2 68 90 0.3 2.2 1029.7 0.0000 0.0000
16:04 11.9 6.2 68 66 1.1 2.8 1029.5 0.0000 0.0000
16:14 11.9 6.2 68 90 0.3 1.7 1029.5 0.0000 0.0000
16:24 11.9 6.4 69 90 0.8 2.5 1029.5 0.0000 0.0000
16:35 11.8 6.1 68 104 0.8 2.2 1029.4 0.0000 0.0000
16:44 11.8 6.3 69 90 0.3 2.2 1029.4 0.0000 0.0000
16:54 11.7 6 68 135 0.3 1.1 1029.2 0.0000 0.0000
17:05 11.6 5.9 68 141 0.3 2.5 1029.3 0.0000 0.0000
17:15 11.5 6 69 140 0.3 0.8 1029.2 0.0000 0.0000
17:25 11.4 6.1 70 135 0.3 2.2 1029.1 0.0000 0.0000
17:34 11.2 5.9 70 123 0.3 1.7 1029.1 0.0000 0.0000
17:45 11.1 5.8 70 135 0.3 1.4 1029 0.0000 0.0000
17:55 10.9 5.9 71 143 0.3 1.1 1028.9 0.0000 0.0000
18:05 10.6 5.6 71 156 0.3 0.8 1029.1 0.0000 0.0000
18:15 10.4 5.6 72 140 0.3 0.8 1029 0.0000 0.0000
18:25 10.1 5.3 72 129 0.3 1.4 1029.1 0.0000 0.0000
18:35 9.9 5.3 73 128 0.3 0.8 1029.1 0.0000 0.0000
18:45 9.7 5.1 73 90 0.3 1.1 1029.2 0.0000 0.0000
18:56 9.5 5.1 74 127 0.3 0.8 1029.2 0.0000 0.0000
19:06 9.2 4.8 74 175 0.3 0.8 1029.2 0.0000 0.0000
19:15 9 4.6 74 161 0.3 0.8 1029.2 0.0000 0.0000
19:25 8.8 4.6 75 135 0.3 0.8 1029.2 0.0000 0.0000
19:36 8.6 4.4 75 135 0.3 0.8 1029 0.0000 0.0000
19:46 8.4 4.2 75 150 0.3 0.8 1029 0.0000 0.0000
19:56 8.2 4.2 76 171 0.3 0.8 1029 0.0000 0.0000
20:06 8 4 76 180 0.3 0.8 1029.1 0.0000 0.0000
20:16 7.7 3.9 77 180 0.3 0.8 1028.9 0.0000 0.0000
20:26 7.5 3.9 78 150 0.3 0.8 1028.9 0.0000 0.0000
20:36 7.4 3.8 78 169 0.3 0.8 1029 0.0000 0.0000
20:47 7.3 3.7 78 165 0.3 0.8 1029 0.0000 0.0000
20:57 7.1 3.5 78 159 0.3 0.8 1029 0.0000 0.0000
21:06 6.9 3.3 78 156 0.3 0.8 1028.9 0.0000 0.0000
21:17 6.7 3.1 78 161 0.3 0.8 1029 0.0000 0.0000
21:27 6.5 3.1 79 164 0.3 0.8 1028.8 0.0000 0.0000
21:37 6.4 3 79 165 0.3 0.8 1028.8 0.0000 0.0000
21:47 6.2 2.8 79 161 0.3 0.8 1028.8 0.0000 0.0000
21:57 6 2.6 79 172 0.3 0.8 1029 0.0000 0.0000
22:07 5.9 2.5 79 172 0.3 0.8 1029 0.0000 0.0000
22:17 5.7 2.5 80 173 0.3 1.1 1028.9 0.0000 0.0000
22:27 5.6 2.4 80 169 0.3 0.8 1028.8 0.0000 0.0000
22:38 5.5 2.3 80 167 0.3 1.1 1028.8 0.0000 0.0000
22:47 5.4 2.2 80 168 0.3 0.8 1028.9 0.0000 0.0000
22:57 5.2 2 80 169 0.3 0.8 1028.8 0.0000 0.0000
23:08 5.1 2.1 81 159 0.3 0.8 1028.6 0.0000 0.0000
23:18 5 2 81 157 0.3 0.8 1028.7 0.0000 0.0000
23:28 4.9 1.9 81 154 0.3 0.8 1028.6 0.0000 0.0000
23:38 4.8 1.8 81 159 0.3 0.8 1028.7 0.0000 0.0000
23:48 4.7 1.7 81 157 0.3 0.8 1028.5 0.0000 0.0000
23:58 4.6 1.8 82 153 0.3 0.8 1028.4 0.0000

DAY STATISTIC

2021-03-02
TEMPERATURE
AVERAGE
5.9
HIGH
12.0
15:34
LOW
1.5
08:10
PRESSURE
AVERAGE
1031.0
HIGH
1033.1
00:05
LOW
1028.4
23:58
DEWPOINT
AVERAGE
3.2
HIGH
6.5
14:03
LOW
0.3
08:10
HUMIDITY
AVERAGE
83
HIGH
95
10:11
LOW
67
15:44
WIND SPEED
AVERAGE
0.6
HIGH
1.1
02:17
WIND GUST
AVERAGE
1.7
HIGH
3.3
08:40
WIND DIRECTION
PREVAILING
E
52.9%
N
0.0
NE
2.9
E
52.9
SE
27.9
S
15.7
SW
0.7
W
0.0
NW
0.0
PRECIPITATION
RAIN HOUR
0.0
RAIN DAY
0.0
TEMPERATURE (°C)
LOW
1.5
HIGH
12.0
AVERAGE
5.9
PRESSURE (hpa)
LOW
1028.4
HIGH
1033.1
AVERAGE
1031.0
DEVICE